Terminal Aerodrome Forecast
Issued by NWS Tuscon, AZ

Current Version | Previous Version | Text Only | Print | Product List | Glossary On
Versions: 1 2 3 4 5 6 7 8 9 10 11 12 13 14 15 16 17 18 19 20 21 22 23 24 25
886
FTUS45 KTWC 010203 AAD
TAFTUS
TAF AMD
KTUS 010203Z 0102/0124 14006KT P6SM SCT100
     FM011700 VRB03KT P6SM SKC
     FM012000 29008KT P6SM FEW100=

USA.gov is the U.S. government's official web portal to all federal, state and local government web resources and services.